Time;durP1;ratioP1;P1;durP2;ratioP2;P2;SDS_P1;SDS_P2;PMS_P1;PMS_P2;Temp;Humidity;BMP_temperature;BMP_pressure;BME280_temperature;BME280_humidity;BME280_pressure;Samples;Min_cycle;Max_cycle;Signal;HPM_P1;HPM_P2
2023/07/06 00:01:28;;;;;;;;;66.25;53.50;;;;;25.78;45.50;99059.06;4912640;29;10876;-75
2023/07/06 00:03:57;;;;;;;;;62.75;52.00;;;;;25.76;45.60;99062.91;4912354;29;10105;-76
2023/07/06 00:06:26;;;;;;;;;64.50;53.25;;;;;25.77;45.13;99070.81;4912585;29;9922;-77
2023/07/06 00:08:55;;;;;;;;;63.75;52.50;;;;;25.66;45.86;99058.34;4911482;29;9663;-75
2023/07/06 00:11:33;;;;;;;;;65.00;53.25;;;;;25.61;45.80;99049.84;4904849;29;9871;-74
2023/07/06 00:14:02;;;;;;;;;68.75;57.50;;;;;25.18;47.00;99047.50;4916714;29;9747;-74
2023/07/06 00:16:31;;;;;;;;;66.50;54.00;;;;;25.31;46.22;99040.84;4911314;29;9926;-74
2023/07/06 00:19:00;;;;;;;;;65.25;52.75;;;;;25.34;46.41;99034.41;4911815;29;9739;-75
2023/07/06 00:21:30;;;;;;;;;66.25;53.25;;;;;25.25;47.10;99036.03;4911706;29;9783;-74
2023/07/06 00:24:00;;;;;;;;;63.67;51.67;;;;;25.14;47.28;99041.53;4911783;29;9827;-79
2023/07/06 00:26:30;;;;;;;;;64.25;52.25;;;;;25.10;47.32;99035.59;4922764;29;9684;-74
2023/07/06 00:28:59;;;;;;;;;63.50;52.00;;;;;25.08;48.02;99034.88;4917128;29;9629;-75
2023/07/06 00:31:40;;;;;;;;;62.00;51.00;;;;;25.03;48.16;99041.66;4911019;29;9525;-73
2023/07/06 00:34:09;;;;;;;;;63.50;52.25;;;;;25.00;48.11;99037.41;4911983;29;9588;-74
2023/07/06 00:36:38;;;;;;;;;66.75;53.50;;;;;24.91;48.91;99054.38;4909759;29;9712;-73
2023/07/06 00:39:10;;;;;;;;;59.67;49.33;;;;;24.92;48.79;99056.03;4894983;29;9784;-77
2023/07/06 00:41:40;;;;;;;;;62.67;51.00;;;;;24.98;49.02;99050.16;4926499;29;9358;-74
2023/07/06 00:44:43;;;;;;;;;62.25;50.75;;;;;25.19;48.35;99046.50;4910656;29;9521;-74
2023/07/06 00:47:12;;;;;;;;;61.33;50.67;;;;;25.01;48.74;99043.63;4926001;29;9793;-77
2023/07/06 00:49:42;;;;;;;;;60.33;50.00;;;;;25.07;48.84;99032.31;4910726;29;9435;-76
2023/07/06 00:52:12;;;;;;;;;59.67;49.33;;;;;25.03;49.37;99023.69;4911542;29;9236;-74
2023/07/06 00:54:42;;;;;;;;;61.33;50.33;;;;;25.10;49.28;99024.81;4926361;29;9361;-75
2023/07/06 00:57:15;;;;;;;;;61.33;49.00;;;;;25.19;48.79;99025.84;4926167;29;9417;-75
2023/07/06 00:59:44;;;;;;;;;61.33;49.33;;;;;25.21;48.65;99026.56;4927753;29;9116;-73
2023/07/06 01:02:16;;;;;;;;;59.67;49.00;;;;;25.21;48.73;99029.25;4882622;29;9142;-75
2023/07/06 01:04:46;;;;;;;;;63.33;50.67;;;;;25.24;49.22;99031.63;4930142;29;9231;-77
2023/07/06 01:07:20;;;;;;;;;60.67;49.33;;;;;25.27;49.04;99025.16;4930079;29;9063;-74
2023/07/06 01:09:50;;;;;;;;;57.00;48.00;;;;;25.23;49.07;99029.13;4930438;29;9640;-74
2023/07/06 01:12:21;;;;;;;;;59.67;48.33;;;;;25.26;49.03;99035.03;4936074;29;9223;-74
2023/07/06 01:14:50;;;;;;;;;57.33;47.33;;;;;25.24;49.38;99041.56;4901947;29;9094;-74
2023/07/06 01:17:25;;;;;;;;;59.67;49.00;;;;;25.25;49.13;99044.09;4931170;29;9106;-77
2023/07/06 01:20:05;;;;;;;;;60.00;49.67;;;;;25.24;48.92;99050.47;4916075;29;9051;-75
2023/07/06 01:22:57;;;;;;;;;55.33;46.00;;;;;25.35;49.02;99052.22;4930357;29;9092;-74
2023/07/06 01:25:39;;;;;;;;;58.67;47.33;;;;;25.37;48.88;99058.31;4917189;29;8956;-77
2023/07/06 01:28:28;;;;;;;;;58.67;47.67;;;;;25.43;49.04;99068.50;4917234;29;9134;-74
2023/07/06 01:31:21;;;;;;;;;60.67;49.00;;;;;25.46;48.51;99089.78;4914768;29;9028;-74
2023/07/06 01:33:56;;;;;;;;;59.33;48.67;;;;;25.34;49.23;99095.41;4916092;29;9128;-76
2023/07/06 01:36:34;;;;;;;;;56.75;47.50;;;;;25.30;48.63;99092.97;4897380;29;9093;-75
2023/07/06 01:39:17;;;;;;;;;56.00;47.00;;;;;25.22;49.02;99102.72;4916244;29;8863;-75
2023/07/06 01:41:47;;;;;;;;;60.33;49.00;;;;;25.03;49.76;99111.56;4912660;29;9011;-76
2023/07/06 01:44:17;;;;;;;;;58.75;49.00;;;;;25.02;49.72;99109.84;4929706;29;9939;-73
2023/07/06 01:46:53;;;;;;;;;56.00;46.75;;;;;24.95;50.63;99108.72;4930711;29;9617;-75
2023/07/06 01:49:22;;;;;;;;;55.00;44.50;;;;;24.80;50.65;99110.91;4929031;29;8875;-74
2023/07/06 01:52:00;;;;;;;;;54.50;45.50;;;;;24.70;51.01;99118.91;4929394;29;8983;-75
2023/07/06 01:54:36;;;;;;;;;55.75;46.00;;;;;24.47;51.98;99113.69;4929312;29;9740;-75
2023/07/06 01:57:10;;;;;;;;;51.25;43.25;;;;;24.52;52.06;99124.03;4929851;29;10061;-76
2023/07/06 01:59:46;;;;;;;;;45.25;38.25;;;;;24.44;52.13;99124.69;4912325;29;9984;-74
2023/07/06 02:02:19;;;;;;;;;52.75;42.50;;;;;24.40;52.74;99115.19;4916481;29;8873;-73
2023/07/06 02:04:50;;;;;;;;;49.00;42.00;;;;;24.42;52.42;99115.06;4931829;29;9065;-75
2023/07/06 02:07:21;;;;;;;;;50.50;42.50;;;;;24.35;52.94;99104.81;4931003;29;8948;-73
2023/07/06 02:09:54;;;;;;;;;50.75;42.25;;;;;24.22;53.20;99106.00;4930681;29;8886;-75
2023/07/06 02:12:24;;;;;;;;;45.25;39.25;;;;;24.23;53.37;99111.25;4930718;29;8893;-74
2023/07/06 02:14:53;;;;;;;;;52.50;43.75;;;;;24.20;53.06;99113.34;4929895;28;8909;-76
2023/07/06 02:17:23;;;;;;;;;50.75;42.25;;;;;24.10;53.76;99107.88;4930228;29;8957;-75
2023/07/06 02:19:52;;;;;;;;;49.50;42.00;;;;;24.13;53.86;99113.88;4914864;29;8976;-74
2023/07/06 02:22:21;;;;;;;;;51.00;42.75;;;;;24.14;53.78;99112.88;4930763;29;9677;-76
2023/07/06 02:24:50;;;;;;;;;50.25;43.25;;;;;24.14;53.50;99112.88;4914655;29;8898;-74
2023/07/06 02:27:19;;;;;;;;;53.75;44.25;;;;;24.15;53.99;99111.91;4915218;29;8924;-75
2023/07/06 02:29:47;;;;;;;;;49.25;41.75;;;;;24.18;53.68;99110.78;4930986;29;8881;-75
2023/07/06 02:32:17;;;;;;;;;52.67;43.33;;;;;24.23;53.34;99107.72;4912226;29;8862;-74
2023/07/06 02:34:48;;;;;;;;;50.50;43.50;;;;;24.28;53.33;99109.03;4893170;29;9829;-75
2023/07/06 02:37:17;;;;;;;;;53.25;43.25;;;;;24.28;53.24;99105.47;4895941;29;8858;-76
2023/07/06 02:39:46;;;;;;;;;52.00;44.00;;;;;24.24;53.10;99104.03;4909987;29;8878;-78
2023/07/06 02:42:15;;;;;;;;;53.25;44.50;;;;;24.28;53.07;99100.09;4902561;29;8847;-74
2023/07/06 02:44:44;;;;;;;;;55.00;44.50;;;;;24.14;53.61;99102.13;4897863;29;8863;-74
2023/07/06 02:47:13;;;;;;;;;57.75;47.25;;;;;24.11;53.31;99097.00;4880760;29;8862;-75
2023/07/06 02:49:42;;;;;;;;;56.50;46.50;;;;;24.14;53.33;99107.50;4882071;29;8861;-75
2023/07/06 02:52:12;;;;;;;;;57.50;46.75;;;;;24.16;53.60;99102.84;4892758;29;8860;-75
2023/07/06 02:54:41;;;;;;;;;56.00;46.00;;;;;24.13;53.57;99096.88;4892493;29;8868;-76
2023/07/06 02:57:10;;;;;;;;;59.75;48.00;;;;;24.13;53.42;99092.41;4876006;29;8845;-77
2023/07/06 02:59:38;;;;;;;;;54.25;45.75;;;;;24.09;53.91;99084.69;4876858;29;9630;-76
2023/07/06 03:02:08;;;;;;;;;57.25;47.50;;;;;24.07;53.54;99089.34;4892632;29;8861;-75
2023/07/06 03:04:37;;;;;;;;;46.50;40.00;;;;;23.96;54.14;99083.06;4899215;29;8950;-75
2023/07/06 03:07:06;;;;;;;;;52.00;44.25;;;;;23.93;54.26;99091.34;4892459;29;8903;-76
2023/07/06 03:09:37;;;;;;;;;52.75;44.00;;;;;23.98;54.24;99085.63;4890599;29;9668;-76
2023/07/06 03:12:09;;;;;;;;;52.25;44.25;;;;;24.00;53.82;99082.78;4893167;29;8886;-76
2023/07/06 03:14:37;;;;;;;;;51.75;41.75;;;;;24.01;53.78;99085.34;4894877;29;8882;-76
2023/07/06 03:17:07;;;;;;;;;51.50;43.25;;;;;24.02;54.06;99087.06;4894906;29;8912;-75
2023/07/06 03:19:38;;;;;;;;;29.75;29.50;;;;;24.01;53.70;99081.81;4908856;29;8890;-74
2023/07/06 03:22:07;;;;;;;;;58.00;47.75;;;;;23.96;53.98;99090.22;4895042;29;9648;-75
2023/07/06 03:24:38;;;;;;;;;63.33;50.00;;;;;23.86;54.12;99092.84;4908919;29;8866;-75
2023/07/06 03:27:08;;;;;;;;;49.75;42.75;;;;;23.89;54.02;99095.28;4894698;29;8981;-75
2023/07/06 03:29:36;;;;;;;;;52.25;44.00;;;;;23.91;53.92;99095.16;4892585;29;9622;-75
2023/07/06 03:32:06;;;;;;;;;48.25;41.75;;;;;23.90;53.53;99091.63;4908870;29;8857;-75
2023/07/06 03:34:35;;;;;;;;;47.25;40.00;;;;;23.88;53.95;99098.94;4894885;29;8976;-73
2023/07/06 03:37:06;;;;;;;;;49.50;42.25;;;;;23.78;53.81;99087.28;4890705;29;8967;-75
2023/07/06 03:39:37;;;;;;;;;50.75;42.25;;;;;23.67;54.49;99096.22;4876773;29;9682;-74
2023/07/06 03:42:08;;;;;;;;;50.50;43.00;;;;;23.74;53.72;99094.72;4899006;29;8875;-75
2023/07/06 03:44:39;;;;;;;;;45.50;39.00;;;;;23.74;53.78;99094.72;4879652;29;9642;-75
2023/07/06 03:47:08;;;;;;;;;48.50;40.75;;;;;23.68;53.97;99091.72;4912384;29;8887;-74
2023/07/06 03:49:37;;;;;;;;;49.25;41.25;;;;;23.65;54.27;99097.31;4914023;29;8988;-74
2023/07/06 03:52:06;;;;;;;;;47.75;41.00;;;;;23.60;54.11;99103.06;4913558;29;8967;-77
2023/07/06 03:54:37;;;;;;;;;62.75;48.50;;;;;23.54;54.04;99096.38;4907654;29;8882;-75
2023/07/06 03:57:07;;;;;;;;;44.50;37.75;;;;;23.57;53.85;99101.50;4877559;29;9542;-75
2023/07/06 03:59:35;;;;;;;;;48.50;41.25;;;;;23.58;53.92;99099.66;4919504;29;8867;-76
2023/07/06 04:02:05;;;;;;;;;46.75;39.25;;;;;23.57;54.12;99097.97;4911267;29;8961;-75
2023/07/06 04:04:34;;;;;;;;;50.75;42.00;;;;;23.68;53.85;99095.25;4913763;29;8875;-75
2023/07/06 04:07:04;;;;;;;;;47.50;40.75;;;;;23.82;53.43;99102.13;4912365;29;8922;-75
2023/07/06 04:09:32;;;;;;;;;48.25;40.25;;;;;23.87;53.35;99101.78;4912277;29;9793;-75
2023/07/06 04:12:03;;;;;;;;;54.00;44.75;;;;;24.01;53.02;99111.34;4918711;29;8865;-75
2023/07/06 04:14:31;;;;;;;;;56.00;46.25;;;;;24.05;53.08;99104.72;4912893;29;8863;-74
2023/07/06 04:17:01;;;;;;;;;46.00;39.00;;;;;24.19;52.68;99114.31;4910199;29;8863;-76
2023/07/06 04:19:30;;;;;;;;;45.25;39.00;;;;;24.29;52.28;99104.50;4912365;29;8925;-74
2023/07/06 04:22:00;;;;;;;;;45.00;39.00;;;;;24.38;52.10;99109.09;4912320;29;8883;-74
2023/07/06 04:24:31;;;;;;;;;47.00;39.50;;;;;24.46;51.83;99105.75;4912225;29;8906;-75
2023/07/06 04:27:00;;;;;;;;;46.75;40.25;;;;;24.50;51.34;99109.88;4912531;29;8867;-76
2023/07/06 04:29:30;;;;;;;;;69.00;54.33;;;;;24.38;51.36;99109.09;4899221;29;8877;-77
2023/07/06 04:31:59;;;;;;;;;49.50;42.00;;;;;24.42;51.11;99105.16;4903559;29;9631;-76
2023/07/06 04:34:30;;;;;;;;;47.00;39.75;;;;;24.55;51.02;99111.19;4911979;29;8871;-76
2023/07/06 04:36:59;;;;;;;;;43.25;37.00;;;;;24.66;50.62;99109.38;4912871;29;8883;-77
2023/07/06 04:39:27;;;;;;;;;47.25;40.25;;;;;24.77;50.31;99103.94;4913013;29;9081;-74
2023/07/06 04:41:56;;;;;;;;;44.25;37.75;;;;;24.80;50.35;99111.75;4909968;29;8894;-75
2023/07/06 04:44:25;;;;;;;;;41.00;36.25;;;;;24.95;50.26;99108.72;4908903;29;8859;-77
2023/07/06 04:46:59;;;;;;;;;48.75;40.75;;;;;24.89;50.20;99113.66;4894859;29;9010;-76
2023/07/06 04:49:28;;;;;;;;;45.00;38.50;;;;;24.95;49.45;99114.09;4912864;29;8859;-75
2023/07/06 04:51:57;;;;;;;;;48.00;39.75;;;;;24.96;49.68;99123.84;4911830;29;9018;-75
2023/07/06 04:54:28;;;;;;;;;46.75;38.75;;;;;25.09;49.50;99116.41;4927119;29;8993;-77
2023/07/06 04:56:57;;;;;;;;;42.00;35.50;;;;;25.13;48.81;99115.13;4895341;29;8916;-76
2023/07/06 04:59:26;;;;;;;;;48.75;40.75;;;;;24.91;49.73;99113.50;4911990;29;8891;-76
2023/07/06 05:01:56;;;;;;;;;45.00;38.00;;;;;25.17;49.43;99115.72;4908162;29;8910;-73
2023/07/06 05:04:25;;;;;;;;;39.25;35.25;;;;;25.16;48.72;99112.19;4912638;29;8887;-75
2023/07/06 05:06:55;;;;;;;;;41.00;35.50;;;;;25.23;48.56;99112.50;4912280;29;8962;-75
2023/07/06 05:09:24;;;;;;;;;43.50;38.00;;;;;25.31;48.73;99115.34;4912539;29;8895;-76
2023/07/06 05:11:53;;;;;;;;;32.75;30.50;;;;;25.41;47.83;99113.53;4912872;29;8910;-78
2023/07/06 05:14:22;;;;;;;;;40.25;35.50;;;;;25.55;47.70;99116.81;4912957;29;8876;-75
2023/07/06 05:16:51;;;;;;;;;40.25;34.25;;;;;25.66;47.51;99128.34;4911906;29;8875;-75
2023/07/06 05:19:23;;;;;;;;;36.25;32.25;;;;;25.75;47.38;99131.16;4912196;29;8978;-76
2023/07/06 05:21:55;;;;;;;;;40.25;35.00;;;;;25.49;48.44;99123.63;4905515;29;8980;-76
2023/07/06 05:24:25;;;;;;;;;46.00;37.75;;;;;25.64;48.13;99133.00;4896750;29;8953;-75
2023/07/06 05:26:54;;;;;;;;;37.00;34.00;;;;;25.57;48.34;99128.28;4913626;29;9053;-75
2023/07/06 05:29:23;;;;;;;;;42.50;37.25;;;;;25.78;47.71;99128.22;4912124;29;8871;-76
2023/07/06 05:31:53;;;;;;;;;42.50;36.50;;;;;25.89;47.23;99120.00;4911274;29;8855;-76
2023/07/06 05:34:23;;;;;;;;;44.00;38.00;;;;;25.85;47.38;99124.81;4916684;29;8891;-73
2023/07/06 05:36:52;;;;;;;;;46.25;38.00;;;;;25.92;47.32;99127.81;4916760;29;9038;-76
2023/07/06 05:39:20;;;;;;;;;38.00;34.25;;;;;25.78;47.60;99125.53;4903893;29;8881;-75
2023/07/06 05:41:49;;;;;;;;;41.75;35.00;;;;;26.03;46.79;99122.28;4903912;29;8867;-77
2023/07/06 05:44:18;;;;;;;;;42.50;36.50;;;;;25.99;47.10;99122.72;4911411;29;8887;-76
2023/07/06 05:46:47;;;;;;;;;42.25;36.00;;;;;25.82;47.39;99133.16;4913582;29;8867;-76
2023/07/06 05:49:16;;;;;;;;;45.00;38.25;;;;;25.32;48.97;99130.50;4915547;29;8909;-76
2023/07/06 05:51:46;;;;;;;;;47.25;39.00;;;;;25.29;48.86;99139.69;4919186;29;8875;-76
2023/07/06 05:54:15;;;;;;;;;45.75;37.75;;;;;25.19;49.46;99135.25;4918840;29;8891;-74
2023/07/06 05:56:44;;;;;;;;;49.00;41.25;;;;;25.04;50.04;99138.34;4915188;29;8860;-76
2023/07/06 05:59:13;;;;;;;;;48.00;40.50;;;;;25.08;49.86;99139.75;4911736;29;8871;-77
2023/07/06 06:01:42;;;;;;;;;45.00;36.50;;;;;25.29;49.72;99138.84;4913776;29;9629;-75
2023/07/06 06:04:10;;;;;;;;;48.50;41.25;;;;;25.39;49.49;99145.13;4914035;29;8865;-77
2023/07/06 06:06:48;;;;;;;;;51.75;42.50;;;;;25.90;48.70;99145.94;4911834;29;8879;-78
2023/07/06 06:09:17;;;;;;;;;48.75;41.00;;;;;26.11;47.95;99144.97;4901019;29;8976;-77
2023/07/06 06:11:48;;;;;;;;;46.75;40.75;;;;;26.01;48.46;99144.97;4912740;29;8887;-78
2023/07/06 06:14:17;;;;;;;;;52.25;44.00;;;;;26.16;48.22;99138.16;4898226;29;8887;-76
2023/07/06 06:16:46;;;;;;;;;46.50;39.25;;;;;26.12;48.07;99144.00;4912251;29;8930;-77
2023/07/06 06:19:16;;;;;;;;;48.50;40.00;;;;;26.42;47.33;99140.28;4914010;29;9851;-75
2023/07/06 06:21:45;;;;;;;;;48.00;41.25;;;;;26.76;47.04;99139.78;4912838;29;8957;-71
2023/07/06 06:24:17;;;;;;;;;52.00;42.50;;;;;27.01;46.58;99146.38;4913879;29;8894;-73
2023/07/06 06:26:46;;;;;;;;;51.00;43.25;;;;;26.34;47.88;99153.59;4913808;29;8875;-72
2023/07/06 06:29:15;;;;;;;;;54.75;45.00;;;;;26.18;48.28;99154.19;4906481;29;8910;-73
2023/07/06 06:31:44;;;;;;;;;53.25;44.00;;;;;25.67;50.18;99150.72;4910764;29;8867;-73
2023/07/06 06:34:13;;;;;;;;;53.00;44.00;;;;;26.11;49.03;99136.88;4914074;29;8890;-73
2023/07/06 06:36:42;;;;;;;;;52.50;44.50;;;;;25.83;49.30;99148.34;4913520;29;8855;-72
2023/07/06 06:39:11;;;;;;;;;54.00;44.50;;;;;25.62;49.75;99153.81;4913549;29;8895;-73
2023/07/06 06:41:43;;;;;;;;;52.25;43.50;;;;;25.82;49.30;99149.31;4913356;29;8994;-72
2023/07/06 06:44:16;;;;;;;;;51.75;43.50;;;;;26.09;48.63;99148.63;4923242;29;8993;-72
2023/07/06 06:46:47;;;;;;;;;52.50;42.75;;;;;26.45;48.20;99161.53;4895390;29;8883;-71
2023/07/06 06:49:16;;;;;;;;;56.50;45.25;;;;;26.06;48.85;99153.50;4913131;29;8886;-75
2023/07/06 06:51:45;;;;;;;;;52.00;44.25;;;;;26.13;48.70;99159.16;4927675;29;8863;-74
2023/07/06 06:54:14;;;;;;;;;51.75;42.00;;;;;26.09;48.32;99161.28;4913228;29;8883;-72
2023/07/06 06:56:44;;;;;;;;;53.00;44.00;;;;;25.28;50.02;99164.91;4912994;29;8969;-72
2023/07/06 06:59:13;;;;;;;;;52.00;43.75;;;;;25.55;49.22;99160.75;4913039;29;9095;-72
2023/07/06 07:01:42;;;;;;;;;53.00;43.75;;;;;25.75;49.00;99155.41;4899544;29;8858;-73
2023/07/06 07:04:11;;;;;;;;;51.50;43.50;;;;;25.58;49.44;99160.47;4913170;29;8978;-72
2023/07/06 07:06:40;;;;;;;;;53.00;45.00;;;;;25.95;48.56;99157.16;4911510;29;8970;-68
2023/07/06 07:09:10;;;;;;;;;50.25;43.00;;;;;26.23;47.87;99152.78;4910050;29;9036;-71
2023/07/06 07:11:39;;;;;;;;;53.25;45.25;;;;;26.07;47.46;99155.16;4910257;29;8943;-69
2023/07/06 07:14:09;;;;;;;;;51.75;43.50;;;;;25.12;49.59;99154.63;4910255;29;8881;-71
2023/07/06 07:16:40;;;;;;;;;49.00;41.00;;;;;24.99;50.55;99155.84;4908635;29;8915;-75
2023/07/06 07:19:09;;;;;;;;;52.75;44.00;;;;;24.74;51.48;99158.84;4895299;29;8954;-76
2023/07/06 07:21:38;;;;;;;;;48.75;41.25;;;;;24.69;51.39;99162.88;4904583;29;8971;-75
2023/07/06 07:24:08;;;;;;;;;49.00;40.75;;;;;24.70;50.83;99159.22;4909296;29;8891;-76
2023/07/06 07:26:38;;;;;;;;;49.25;41.50;;;;;25.35;49.02;99169.75;4910016;29;8919;-74
2023/07/06 07:29:06;;;;;;;;;51.25;43.25;;;;;24.86;50.86;99162.28;4909909;29;8888;-76
2023/07/06 07:31:38;;;;;;;;;50.75;42.75;;;;;24.72;51.32;99160.78;4910152;29;8872;-77
2023/07/06 07:34:07;;;;;;;;;53.00;42.75;;;;;24.34;51.78;99158.69;4910167;29;8872;-75
2023/07/06 07:36:36;;;;;;;;;54.25;44.25;;;;;24.40;52.62;99166.22;4909881;29;8873;-76
2023/07/06 07:39:05;;;;;;;;;49.25;41.25;;;;;24.79;51.70;99162.97;4909913;29;8905;-77
2023/07/06 07:41:34;;;;;;;;;54.25;44.25;;;;;24.92;51.26;99169.84;4909716;29;8873;-75
2023/07/06 07:44:03;;;;;;;;;47.50;39.00;;;;;25.46;49.51;99166.97;4909906;29;8991;-77
2023/07/06 07:46:32;;;;;;;;;50.75;43.00;;;;;25.04;50.63;99170.59;4909588;29;8863;-77
2023/07/06 07:49:02;;;;;;;;;52.00;43.00;;;;;25.05;50.85;99172.28;4923575;29;8879;-76
2023/07/06 07:51:31;;;;;;;;;51.25;42.75;;;;;25.64;48.80;99172.53;4911703;29;8887;-77
2023/07/06 07:54:00;;;;;;;;;53.00;43.00;;;;;25.22;50.05;99170.81;4925851;29;9038;-76
2023/07/06 07:56:32;;;;;;;;;50.50;43.00;;;;;25.79;47.97;99178.34;4911393;29;8859;-75
2023/07/06 07:59:00;;;;;;;;;47.50;40.00;;;;;26.16;47.14;99170.50;4911862;29;8848;-81
2023/07/06 08:01:30;;;;;;;;;46.75;39.50;;;;;26.02;46.94;99176.28;4877808;29;8921;-72
2023/07/06 08:03:59;;;;;;;;;43.75;38.00;;;;;26.22;46.72;99179.84;4910428;29;8883;-72
2023/07/06 08:06:29;;;;;;;;;47.00;39.00;;;;;26.50;44.65;99174.63;4911693;29;9692;-72
2023/07/06 08:08:58;;;;;;;;;40.75;35.50;;;;;26.91;43.82;99175.22;4911165;29;8894;-70
2023/07/06 08:11:27;;;;;;;;;44.25;37.50;;;;;26.25;46.22;99179.56;4909346;29;8894;-73
2023/07/06 08:13:56;;;;;;;;;48.50;41.25;;;;;26.49;46.25;99181.84;4911970;29;8859;-70
2023/07/06 08:16:27;;;;;;;;;47.00;39.00;;;;;25.56;47.18;99191.22;4894321;29;8883;-70
2023/07/06 08:18:56;;;;;;;;;47.25;40.00;;;;;25.91;47.53;99185.38;4911471;29;8950;-69
2023/07/06 08:21:46;;;;;;;;;46.75;40.25;;;;;25.55;48.45;99187.69;4912277;29;8891;-70
2023/07/06 08:24:37;;;;;;;;;47.00;40.00;;;;;25.97;46.53;99183.97;4912278;29;8883;-71
2023/07/06 08:27:06;;;;;;;;;50.00;42.25;;;;;25.82;47.50;99194.25;4911875;29;8874;-70
2023/07/06 08:29:35;;;;;;;;;53.50;43.50;;;;;25.34;49.10;99203.03;4893788;29;9003;-71
2023/07/06 08:32:05;;;;;;;;;48.75;41.75;;;;;25.73;47.69;99193.22;4911777;29;8966;-73
2023/07/06 08:34:35;;;;;;;;;51.75;43.25;;;;;25.51;48.63;99194.28;4911734;29;8955;-70
2023/07/06 08:37:05;;;;;;;;;56.50;46.00;;;;;25.48;48.55;99195.44;4910831;29;9017;-70
2023/07/06 08:39:34;;;;;;;;;55.75;46.00;;;;;25.56;48.47;99199.28;4911871;29;9732;-70
2023/07/06 08:42:09;;;;;;;;;51.50;43.50;;;;;25.94;47.92;99195.00;4911560;29;8910;-70
2023/07/06 08:44:38;;;;;;;;;53.25;44.75;;;;;26.32;46.78;99193.31;4911362;29;8883;-71
2023/07/06 08:47:10;;;;;;;;;52.50;43.75;;;;;26.83;46.03;99192.13;4911716;29;8875;-71
2023/07/06 08:49:40;;;;;;;;;53.00;43.50;;;;;27.35;44.81;99184.47;4911702;29;9046;-70
2023/07/06 08:52:13;;;;;;;;;48.00;41.00;;;;;27.61;43.47;99191.91;4911496;29;9644;-70
2023/07/06 08:54:47;;;;;;;;;52.00;44.00;;;;;27.03;44.51;99190.28;4911101;29;8930;-70
2023/07/06 08:57:20;;;;;;;;;52.75;44.00;;;;;26.76;45.43;99191.88;4927939;29;8869;-71
2023/07/06 08:59:51;;;;;;;;;52.00;43.25;;;;;26.25;45.48;99201.13;4928018;29;8894;-71
2023/07/06 09:02:22;;;;;;;;;51.75;43.00;;;;;26.57;44.75;99198.16;4927799;29;8846;-68
2023/07/06 09:04:53;;;;;;;;;47.00;40.50;;;;;26.38;44.17;99190.03;4928042;29;9022;-70
2023/07/06 09:07:34;;;;;;;;;49.00;41.25;;;;;26.26;44.25;99200.13;4927753;29;8901;-71
2023/07/06 09:10:12;;;;;;;;;45.00;39.00;;;;;26.63;44.09;99184.09;4926490;29;8854;-69
2023/07/06 09:12:54;;;;;;;;;49.25;40.50;;;;;27.27;42.43;99189.75;4927747;29;8913;-69
2023/07/06 09:15:27;;;;;;;;;42.50;37.00;;;;;26.53;42.52;99191.34;4927676;29;8878;-70
2023/07/06 09:17:59;;;;;;;;;45.50;39.25;;;;;26.58;42.63;99199.00;4927320;29;8881;-71
2023/07/06 09:20:29;;;;;;;;;46.25;38.75;;;;;25.93;43.21;99198.66;4928579;29;8918;-71
2023/07/06 09:23:03;;;;;;;;;44.50;37.50;;;;;26.21;43.24;99203.25;4931315;29;8866;-72
2023/07/06 09:25:36;;;;;;;;;44.00;37.00;;;;;26.47;42.99;99197.31;4931186;29;8906;-71
2023/07/06 09:28:07;;;;;;;;;44.00;37.50;;;;;26.66;42.91;99194.59;4911469;29;8851;-73
2023/07/06 09:30:39;;;;;;;;;48.50;40.50;;;;;26.93;42.77;99200.19;4925447;29;8917;-84
2023/07/06 09:33:18;;;;;;;;;44.00;37.75;;;;;27.10;41.37;99198.59;4928656;29;8871;-81
2023/07/06 09:35:50;;;;;;;;;40.75;35.25;;;;;26.46;42.77;99207.25;4911969;29;8855;-78
2023/07/06 09:38:23;;;;;;;;;41.50;35.25;;;;;26.71;42.34;99210.31;4927833;29;8879;-79
2023/07/06 09:40:54;;;;;;;;;43.25;37.00;;;;;26.47;42.24;99200.88;4929431;29;9748;-78
2023/07/06 09:43:26;;;;;;;;;40.50;35.25;;;;;27.25;41.17;99194.47;4929304;29;8887;-76
2023/07/06 09:45:59;;;;;;;;;43.75;36.00;;;;;27.77;40.35;99199.31;4913322;29;8871;-77
2023/07/06 09:48:32;;;;;;;;;35.00;31.75;;;;;28.31;39.14;99199.38;4913820;29;8871;-79
2023/07/06 09:51:08;;;;;;;;;42.50;36.25;;;;;28.35;38.60;99195.38;4913732;29;8903;-80
2023/07/06 09:53:44;;;;;;;;;35.75;32.75;;;;;28.62;38.25;99194.41;4913498;29;8839;-79
2023/07/06 09:56:13;;;;;;;;;43.50;36.25;;;;;27.85;39.69;99193.16;4914733;29;8959;-78
2023/07/06 09:58:45;;;;;;;;;43.25;35.75;;;;;27.28;41.33;99188.75;4913933;29;8946;-80
2023/07/06 10:01:20;;;;;;;;;40.75;35.00;;;;;27.29;41.66;99182.38;4917404;29;9626;-79
2023/07/06 10:04:00;;;;;;;;;41.25;36.00;;;;;28.02;39.94;99179.69;4923760;29;8879;-79
2023/07/06 10:06:40;;;;;;;;;31.75;30.00;;;;;28.41;39.58;99175.81;4932156;29;8871;-78
2023/07/06 10:09:16;;;;;;;;;39.25;35.00;;;;;27.64;40.53;99181.63;4914229;29;8918;-78
2023/07/06 10:11:52;;;;;;;;;39.50;34.25;;;;;27.53;41.02;99175.56;4911870;29;8906;-80
2023/07/06 10:14:30;;;;;;;;;41.00;35.50;;;;;27.17;41.76;99178.13;4919674;29;8847;-78
2023/07/06 10:17:13;;;;;;;;;42.25;37.00;;;;;27.18;41.76;99179.84;4913785;29;8867;-78
2023/07/06 10:19:53;;;;;;;;;44.25;37.50;;;;;26.96;42.26;99176.47;4928226;29;8887;-79
2023/07/06 10:22:31;;;;;;;;;43.25;37.50;;;;;27.28;41.36;99164.47;4913472;29;8875;-77
2023/07/06 10:25:18;;;;;;;;;36.25;33.25;;;;;28.01;39.77;99160.91;4911304;29;8973;-79
2023/07/06 10:27:52;;;;;;;;;33.50;32.00;;;;;28.51;38.32;99168.44;4912260;29;8890;-77
2023/07/06 10:30:27;;;;;;;;;36.50;33.00;;;;;28.10;39.15;99173.50;4880308;29;8880;-80
2023/07/06 10:32:59;;;;;;;;;36.50;32.00;;;;;28.15;39.41;99170.34;4912507;29;8894;-80
2023/07/06 10:35:33;;;;;;;;;35.50;31.75;;;;;27.44;39.45;99171.94;4907807;29;8850;-76
2023/07/06 10:38:02;;;;;;;;;37.50;33.75;;;;;27.66;38.60;99167.13;4927715;29;8883;-80
2023/07/06 10:40:32;;;;;;;;;42.75;35.75;;;;;28.01;37.53;99158.22;4913052;29;10329;-77
2023/07/06 10:43:20;;;;;;;;;43.00;36.00;;;;;27.98;37.25;99147.69;4910623;29;8887;-77
2023/07/06 10:45:51;;;;;;;;;51.25;43.00;;;;;27.68;35.69;99151.63;4913186;29;8867;-76
2023/07/06 10:48:30;;;;;;;;;51.75;42.00;;;;;27.54;36.75;99159.22;4917812;29;8887;-78
2023/07/06 10:51:16;;;;;;;;;48.25;39.50;;;;;27.68;37.14;99148.91;4915718;29;9009;-78
2023/07/06 10:53:51;;;;;;;;;51.75;42.75;;;;;27.92;35.69;99141.06;4902126;29;8887;-76
2023/07/06 10:56:23;;;;;;;;;46.75;39.75;;;;;27.68;36.65;99146.22;4927513;29;8954;-76
2023/07/06 10:58:57;;;;;;;;;52.50;44.25;;;;;27.22;36.09;99138.06;4912271;29;9070;-78
2023/07/06 11:01:32;;;;;;;;;51.50;42.75;;;;;27.35;36.69;99135.03;4894857;29;8848;-77
2023/07/06 11:04:02;;;;;;;;;44.75;38.25;;;;;27.98;36.82;99135.03;4907607;29;8889;-77
2023/07/06 11:06:54;;;;;;;;;53.00;43.50;;;;;28.21;34.94;99135.47;4879257;29;8859;-77
2023/07/06 11:09:23;;;;;;;;;51.50;43.50;;;;;28.74;34.32;99128.25;4910328;29;8889;-77
2023/07/06 11:12:20;;;;;;;;;44.00;38.25;;;;;27.97;36.35;99141.47;4920932;29;8896;-78
2023/07/06 11:14:50;;;;;;;;;46.50;37.75;;;;;28.07;35.98;99133.28;4908902;29;8885;-77
2023/07/06 11:17:28;;;;;;;;;51.25;42.75;;;;;27.98;35.46;99136.91;4894827;29;8924;-78
2023/07/06 11:20:03;;;;;;;;;45.50;39.25;;;;;28.40;35.29;99131.72;4910520;29;8893;-78
2023/07/06 11:22:33;;;;;;;;;45.25;38.25;;;;;29.14;34.30;99126.75;4910707;29;8873;-78
2023/07/06 11:25:05;;;;;;;;;45.50;38.50;;;;;29.10;33.41;99132.66;4910455;29;9020;-76
2023/07/06 11:27:38;;;;;;;;;44.75;38.00;;;;;29.52;32.88;99142.66;4906207;29;8873;-76
2023/07/06 11:30:17;;;;;;;;;43.00;36.25;;;;;30.22;33.05;99136.91;4883141;29;8883;-79
2023/07/06 11:33:01;;;;;;;;;46.75;39.50;;;;;30.10;31.93;99132.78;4910479;29;8871;-77
2023/07/06 11:35:42;;;;;;;;;49.00;40.50;;;;;29.36;33.70;99140.75;4894735;29;8883;-77
2023/07/06 11:38:24;;;;;;;;;38.50;33.75;;;;;29.61;33.57;99140.81;4926551;29;8867;-75
2023/07/06 11:41:19;;;;;;;;;46.50;38.25;;;;;28.85;35.25;99139.81;4912799;29;8887;-77
2023/07/06 11:44:36;;;;;;;;;45.75;37.25;;;;;27.97;36.33;99144.16;4926234;29;8871;-77
2023/07/06 11:47:24;;;;;;;;;47.00;39.00;;;;;27.65;37.12;99147.38;4851332;29;8891;-78